FW2367 Weather Reports


Display with metric or nautical units.
time (UTC)temp
F
wind
direction
speed
MPH
gust
MPH
rain 1hr
in
rain 24hr
in
rain mn
in
humidity
%
barometer
mb
20220627050321 72 180 4.0 8.0 0.00 0.00 0.00 58 1018.1
20220627045405 72 180 4.0 10.0 0.00 0.00 0.00 58 1018.1
20220627044424 72 180 2.0 7.0 0.00 0.00 0.00 58 1018.3
20220627043427 73 180 1.0 3.0 0.00 0.00 0.00 59 1018.1
20220627042523 73 180 1.0 4.0 0.00 0.00 0.00 59 1018.2
20220627041623 73 180 4.0 9.0 0.00 0.00 0.00 59 1018.3
20220627040625 73 180 1.0 5.0 0.00 0.00 0.00 59 1018.4
20220627035632 74 180 1.0 6.0 0.00 0.00 0.00 59 1018.6
20220627034632 74 180 3.0 6.0 0.00 0.00 0.00 59 1018.5
20220627033632 74 180 2.0 6.0 0.00 0.00 0.00 59 1018.6
20220627032631 74 180 3.0 6.0 0.00 0.00 0.00 62 1018.6
20220627032533 74 180 3.0 8.0 0.00 0.00 0.00 62 1018.6
20220627031531 74 180 3.0 7.0 0.00 0.00 0.00 64 1018.7
20220627030532 74 180 2.0 7.0 0.00 0.00 0.00 63 1018.7
20220627025533 74 180 2.0 6.0 0.00 0.00 0.00 63 1018.8
20220627024531 75 180 2.0 6.0 0.00 0.00 0.00 64 1018.9
20220627023630 75 180 1.0 7.0 0.00 0.00 0.00 64 1018.8
20220627022632 75 177 4.0 10.0 0.00 0.00 0.00 65 1019.0
20220627021648 75 177 2.0 8.0 0.00 0.00 0.00 66 1019.0
20220627020631 76 180 4.0 11.0 0.00 0.00 0.00 66 1019.0
20220627015631 76 180 1.0 5.0 0.00 0.00 0.00 65 1019.0
20220627014630 76 180 2.0 7.0 0.00 0.00 0.00 67 1018.9
20220627013633 76 179 1.0 4.0 0.00 0.00 0.00 68 1018.8
20220627012731 77 180 4.0 8.0 0.00 0.00 0.00 66 1018.7
20220627011731 77 180 0.0 4.0 0.00 0.00 0.00 66 1018.6
20220627010732 78 173 0.0 4.0 0.00 0.00 0.00 66 1018.5
20220627005830 78 180 2.0 6.0 0.00 0.00 0.00 64 1018.4
20220627004830 78 180 4.0 11.0 0.00 0.00 0.00 62 1018.2
20220627003833 79 180 3.0 11.0 0.00 0.00 0.00 61 1018.3
20220627002830 79 180 1.0 4.0 0.00 0.00 0.00 58 1018.2
20220627001831 80 180 3.0 9.0 0.00 0.00 0.00 55 1018.2
20220627000831 80 180 1.0 4.0 0.00 0.00 0.00 54 1018.2
20220626235830 81 177 2.0 4.0 0.00 0.00 0.00 52 1018.3
20220626234830 81 180 1.0 6.0 0.00 0.00 0.00 51 1018.1
20220626233831 82 180 1.0 6.0 0.00 0.00 0.00 49 1018.1
20220626232831 82 168 2.0 8.0 0.00 0.00 0.00 49 1018.0
20220626231930 82 179 2.0 6.0 0.00 0.00 0.00 48 1018.1
20220626230930 82 171 4.0 11.0 0.00 0.00 0.00 49 1018.0
20220626225929 82 177 4.0 10.0 0.00 0.00 0.00 47 1018.0
20220626224930 83 180 7.0 12.0 0.00 0.00 0.00 46 1018.0
20220626223931 83 179 7.0 13.0 0.00 0.00 0.00 45 1017.9
20220626223830 83 180 5.0 13.0 0.00 0.00 0.00 45 1017.9
20220626222831 84 175 4.0 10.0 0.00 0.00 0.00 45 1017.8
20220626221930 84 180 6.0 10.0 0.00 0.00 0.00 45 1017.9
20220626220931 85 179 4.0 8.0 0.00 0.00 0.00 46 1017.8
20220626215948 85 180 1.0 8.0 0.00 0.00 0.00 46 1017.8
20220626215031 86 173 3.0 7.0 0.00 0.00 0.00 46 1017.7
20220626214130 86 180 7.0 13.0 0.00 0.00 0.00 46 1017.6
20220626213131 87 180 4.0 11.0 0.00 0.00 0.00 45 1017.7
20220626212130 88 174 5.0 9.0 0.00 0.00 0.00 44 1017.6
20220626211132 88 180 5.0 11.0 0.00 0.00 0.00 44 1017.8
20220626210132 86 169 1.0 5.0 0.00 0.00 0.00 46 1017.7
20220626205131 86 180 3.0 5.0 0.00 0.00 0.00 48 1018.0
20220626204230 86 180 0.0 2.0 0.00 0.00 0.00 48 1018.0
20220626203330 86 180 0.0 0.0 0.00 0.00 0.00 48 1018.1
20220626202330 86 146 0.0 1.0 0.00 0.00 0.00 48 1018.1
20220626201331 87 158 0.0 1.0 0.00 0.00 0.00 47 1018.2
20220626200331 89 180 1.0 4.0 0.00 0.00 0.00 45 1018.2
20220626195331 90 174 1.0 4.0 0.00 0.00 0.00 45 1018.3
20220626194331 88 180 1.0 4.0 0.00 0.00 0.00 46 1018.4
20220626193332 88 164 1.0 6.0 0.00 0.00 0.00 46 1018.4
20220626192429 88 178 2.0 6.0 0.00 0.00 0.00 45 1018.6
20220626191431 88 171 3.0 7.0 0.00 0.00 0.00 45 1018.8
20220626190430 87 177 2.0 3.0 0.00 0.00 0.00 45 1018.9
20220626185432 88 157 2.0 7.0 0.00 0.00 0.00 45 1019.0
20220626184430 88 177 0.0 4.0 0.00 0.00 0.00 44 1018.9
20220626183431 88 165 2.0 6.0 0.00 0.00 0.00 45 1019.1
20220626182432 87 177 1.0 4.0 0.00 0.00 0.00 45 1019.0
20220626181529 88 180 4.0 8.0 0.00 0.00 0.00 45 1019.2
20220626180531 88 169 1.0 4.0 0.00 0.00 0.00 46 1019.3
20220626175547 87 179 2.0 6.0 0.00 0.00 0.00 46 1019.4
20220626174530 88 180 1.0 6.0 0.00 0.00 0.00 46 1019.5
20220626173629 87 170 1.0 5.0 0.00 0.00 0.00 45 1019.6
20220626172631 87 171 0.0 2.0 0.00 0.00 0.00 45 1019.8
20220626171631 87 173 1.0 4.0 0.00 0.00 0.00 46 1019.9
20220626170631 88 180 3.0 6.0 0.00 0.00 0.00 44 1020.1
20220626165631 89 169 0.0 4.0 0.00 0.00 0.00 45 1020.1
20220626164731 89 167 2.0 4.0 0.00 0.00 0.00 44 1020.0
20220626163747 89 160 1.0 5.0 0.00 0.00 0.00 41 1020.1
20220626162747 89 179 2.0 4.0 0.00 0.00 0.00 39 1020.2
20220626161730 90 178 0.0 1.0 0.00 0.00 0.00 40 1020.4
20220626160733 89 179 0.0 1.0 0.00 0.00 0.00 38 1020.6
20220626155733 89 180 0.0 2.0 0.00 0.00 0.00 39 1020.7
20220626154730 89 180 2.0 8.0 0.00 0.00 0.00 39 1020.7
20220626153829 89 178 2.0 4.0 0.00 0.00 0.00 41 1020.9
20220626152831 88 175 0.0 3.0 0.00 0.00 0.00 39 1020.9
20220626151930 87 180 0.0 2.0 0.00 0.00 0.00 39 1021.0
20220626150931 88 180 3.0 7.0 0.00 0.00 0.00 39 1021.0
20220626145930 89 180 5.0 9.0 0.00 0.00 0.00 40 1021.1
20220626145831 89 180 1.0 6.0 0.00 0.00 0.00 39 1021.1
20220626144832 88 180 0.0 0.0 0.00 0.00 0.00 40 1021.2
20220626143829 87 180 0.0 2.0 0.00 0.00 0.00 41 1021.3
20220626142831 87 180 0.0 2.0 0.00 0.00 0.00 43 1021.3
20220626141831 87 180 0.0 0.0 0.00 0.00 0.00 44 1021.4
20220626141731 87 180 0.0 2.0 0.00 0.00 0.00 44 1021.4
20220626140731 86 180 1.0 4.0 0.00 0.00 0.00 46 1021.5
20220626140630 86 180 0.0 2.0 0.00 0.00 0.00 46 1021.5
20220626135632 85 180 0.0 1.0 0.00 0.00 0.00 48 1021.5
20220626134730 84 180 3.0 7.0 0.00 0.00 0.00 49 1021.6
20220626133731 84 180 2.0 4.0 0.00 0.00 0.00 50 1021.7
20220626132732 85 180 0.0 3.0 0.00 0.00 0.00 49 1021.6
20220626131730 85 180 0.0 0.0 0.00 0.00 0.00 50 1021.9
20220626130830 84 180 0.0 1.0 0.00 0.00 0.00 52 1021.8
20220626125832 82 180 0.0 0.0 0.00 0.00 0.00 56 1021.8
20220626124832 80 180 0.0 0.0 0.00 0.00 0.00 58 1021.7
20220626123930 80 180 3.0 4.0 0.00 0.00 0.00 60 1021.6
20220626123831 80 180 3.0 4.0 0.00 0.00 0.00 60 1021.6
20220626122929 79 180 0.0 1.0 0.00 0.00 0.00 61 1021.6
20220626121931 77 180 0.0 1.0 0.00 0.00 0.00 64 1021.7
20220626120946 77 180 0.0 0.0 0.00 0.00 0.00 66 1021.7
20220626115930 75 180 1.0 3.0 0.00 0.00 0.00 69 1021.8
20220626115830 75 180 1.0 3.0 0.00 0.00 0.00 69 1021.8
20220626114929 74 180 0.0 0.0 0.00 0.00 0.00 71 1021.9
20220626113929 73 180 0.0 0.0 0.00 0.00 0.00 75 1022.1
20220626112932 72 180 0.0 1.0 0.00 0.00 0.00 77 1022.2
20220626111930 71 180 0.0 0.0 0.00 0.00 0.00 77 1022.1
20220626111029 71 180 0.0 1.0 0.00 0.00 0.00 78 1022.2
20220626110030 71 180 1.0 4.0 0.00 0.00 0.00 79 1022.2
20220626105030 70 180 0.0 1.0 0.00 0.00 0.00 79 1022.2
20220626104030 70 180 0.0 1.0 0.00 0.00 0.00 80 1022.2
20220626103129 70 180 0.0 0.0 0.00 0.00 0.00 79 1022.4
20220626102131 70 180 0.0 1.0 0.00 0.00 0.00 80 1022.3
20220626101229 70 180 0.0 2.0 0.00 0.00 0.00 80 1022.3
20220626100231 70 180 0.0 1.0 0.00 0.00 0.00 81 1022.2
20220626095230 70 180 0.0 0.0 0.00 0.00 0.00 81 1022.1
20220626094232 69 180 0.0 0.0 0.00 0.00 0.00 81 1022.1
20220626094131 69 180 0.0 0.0 0.00 0.00 0.00 81 1022.0
20220626093130 69 180 0.0 0.0 0.00 0.00 0.00 79 1022.0
20220626092129 70 180 0.0 0.0 0.00 0.00 0.00 78 1021.9
20220626091229 70 180 0.0 0.0 0.00 0.00 0.00 78 1022.0
20220626090230 70 180 0.0 0.0 0.00 0.00 0.00 78 1021.8
20220626090131 70 180 0.0 0.0 0.00 0.00 0.00 77 1021.9
20220626085129 70 180 0.0 0.0 0.00 0.00 0.00 78 1021.7
20220626084132 71 180 0.0 0.0 0.00 0.00 0.00 77 1021.6
20220626083130 71 180 0.0 0.0 0.00 0.00 0.00 77 1021.5
20220626082130 71 180 0.0 0.0 0.00 0.00 0.00 76 1021.4
20220626081129 71 180 1.0 2.0 0.00 0.00 0.00 76 1021.3
20220626080130 71 180 0.0 1.0 0.00 0.00 0.00 75 1021.2
20220626075130 71 180 0.0 0.0 0.00 0.00 0.00 74 1021.2
20220626074129 72 180 2.0 4.0 0.00 0.00 0.00 75 1021.1
20220626073131 72 180 2.0 4.0 0.00 0.00 0.00 74 1021.1
20220626072130 72 180 3.0 5.0 0.00 0.00 0.00 74 1021.3
20220626072029 72 180 3.0 5.0 0.00 0.00 0.00 74 1021.3
20220626071128 72 180 2.0 4.0 0.00 0.00 0.00 73 1021.5
20220626070129 72 180 1.0 3.0 0.00 0.00 0.00 72 1021.7
20220626065129 72 180 2.0 4.0 0.00 0.00 0.00 72 1021.8
20220626064129 72 180 1.0 3.0 0.00 0.00 0.00 71 1021.6
20220626064032 72 180 1.0 2.0 0.00 0.00 0.00 71 1021.6
20220626063030 73 180 2.0 3.0 0.00 0.00 0.00 70 1021.6
20220626062032 73 180 2.0 3.0 0.00 0.00 0.00 70 1021.5
20220626061129 73 177 1.0 5.0 0.00 0.00 0.00 70 1021.6
20220626060129 73 180 1.0 3.0 0.00 0.00 0.00 69 1021.7
20220626055229 74 180 0.0 1.0 0.00 0.00 0.00 69 1021.8
20220626054230 74 180 2.0 4.0 0.00 0.00 0.00 68 1021.7
20220626053231 74 180 2.0 3.0 0.00 0.00 0.00 68 1021.8
20220626052231 74 180 0.0 3.0 0.00 0.00 0.00 67 1021.8
20220626052130 74 180 1.0 2.0 0.00 0.00 0.00 67 1021.7
20220626051131 74 180 1.0 2.0 0.00 0.00 0.00 67 1021.5